createdAt,value
2022-08-19T00:00:45.252Z,0.00
2022-08-19T00:01:45.205Z,0.00
2022-08-19T00:02:50.003Z,0.00
2022-08-19T00:03:45.186Z,0.00
2022-08-19T00:04:45.206Z,0.00
2022-08-19T00:05:45.170Z,0.00
2022-08-19T00:06:45.203Z,0.00
2022-08-19T00:07:45.147Z,0.00
2022-08-19T00:08:45.141Z,0.00
2022-08-19T00:09:45.132Z,0.00
2022-08-19T00:10:45.119Z,0.00
2022-08-19T00:11:45.139Z,0.00
2022-08-19T00:12:46.905Z,0.00
2022-08-19T00:13:45.089Z,0.00
2022-08-19T00:14:45.076Z,0.00
2022-08-19T00:15:45.073Z,0.00
2022-08-19T00:16:45.063Z,0.00
2022-08-19T00:17:45.081Z,0.00
2022-08-19T00:18:45.043Z,0.00
2022-08-19T00:19:45.024Z,0.00
2022-08-19T00:20:45.020Z,0.00
2022-08-19T00:21:45.016Z,0.00
2022-08-19T00:22:45.035Z,0.00
2022-08-19T00:23:44.993Z,0.00
2022-08-19T00:24:50.891Z,0.00
2022-08-19T00:25:48.590Z,0.00
2022-08-19T00:26:44.967Z,0.00
2022-08-19T00:27:45.023Z,0.00
2022-08-19T00:28:44.943Z,0.00
2022-08-19T00:29:44.937Z,0.00
2022-08-19T00:30:44.931Z,0.00
2022-08-19T00:31:44.920Z,0.00
2022-08-19T00:32:44.905Z,0.00
2022-08-19T00:33:44.941Z,0.00
2022-08-19T00:34:44.887Z,0.00
2022-08-19T00:35:44.877Z,0.00
2022-08-19T00:36:44.881Z,0.00
2022-08-19T00:37:44.859Z,0.00
2022-08-19T00:38:44.894Z,0.00
2022-08-19T00:39:44.856Z,0.00
2022-08-19T00:40:44.833Z,0.00
2022-08-19T00:41:46.487Z,0.00
2022-08-19T00:42:44.805Z,0.00
2022-08-19T00:43:44.801Z,0.00
2022-08-19T00:44:44.805Z,0.00
2022-08-19T00:45:44.781Z,0.00
2022-08-19T00:46:44.772Z,0.00
2022-08-19T00:47:45.764Z,0.00
2022-08-19T00:48:44.755Z,0.00
2022-08-19T00:49:44.758Z,0.00
2022-08-19T00:50:51.890Z,0.00
2022-08-19T00:51:45.722Z,0.00
2022-08-19T00:52:44.711Z,0.00
2022-08-19T00:53:44.750Z,0.00
2022-08-19T00:54:44.697Z,0.00
2022-08-19T00:55:44.680Z,0.00
2022-08-19T00:56:44.672Z,0.00
2022-08-19T00:57:44.662Z,0.00
2022-08-19T00:58:44.684Z,0.00
2022-08-19T01:00:00.498Z,0.00
2022-08-19T01:00:45.635Z,0.00
2022-08-19T01:01:44.654Z,0.00
2022-08-19T01:02:44.614Z,0.00
2022-08-19T01:03:57.925Z,0.00
2022-08-19T01:04:45.613Z,0.00
2022-08-19T01:05:44.588Z,0.00
2022-08-19T01:06:44.572Z,0.00
2022-08-19T01:07:44.566Z,0.00
2022-08-19T01:08:44.558Z,0.00
2022-08-19T01:09:44.567Z,0.00
2022-08-19T01:10:44.539Z,0.00
2022-08-19T01:11:44.529Z,0.00
2022-08-19T01:12:44.524Z,0.00
2022-08-19T01:13:50.026Z,0.00
2022-08-19T01:14:45.545Z,0.00
2022-08-19T01:15:44.495Z,0.00
2022-08-19T01:16:44.482Z,0.00
2022-08-19T01:17:44.475Z,0.00
2022-08-19T01:18:44.469Z,0.00
2022-08-19T01:19:44.816Z,0.00
2022-08-19T01:20:44.447Z,0.00
2022-08-19T01:21:44.436Z,0.00
2022-08-19T01:22:44.421Z,0.00
2022-08-19T01:23:44.416Z,0.00
2022-08-19T01:24:49.574Z,0.00
2022-08-19T01:25:45.470Z,0.00
2022-08-19T01:26:44.387Z,0.00
2022-08-19T01:27:44.374Z,0.00
2022-08-19T01:28:44.366Z,0.00
2022-08-19T01:29:44.359Z,0.00
2022-08-19T01:30:44.610Z,0.00
2022-08-19T01:31:45.432Z,0.00
2022-08-19T01:32:44.441Z,0.00
2022-08-19T01:33:44.315Z,0.00
2022-08-19T01:34:44.302Z,0.00
2022-08-19T01:35:44.335Z,0.00
2022-08-19T01:36:44.286Z,0.00
2022-08-19T01:37:44.279Z,0.00
2022-08-19T01:38:44.644Z,0.00
2022-08-19T01:39:44.333Z,0.00
2022-08-19T01:40:44.277Z,0.00
2022-08-19T01:41:44.240Z,0.00
2022-08-19T01:42:44.226Z,0.00
2022-08-19T01:44:09.985Z,0.00
2022-08-19T01:44:45.207Z,0.00
2022-08-19T01:45:44.199Z,0.00
2022-08-19T01:46:44.203Z,0.00
2022-08-19T01:47:44.181Z,0.00
2022-08-19T01:48:45.170Z,0.00
2022-08-19T01:49:44.175Z,0.00
2022-08-19T01:50:44.165Z,0.00
2022-08-19T01:51:44.157Z,0.00
2022-08-19T01:52:44.136Z,0.00
2022-08-19T01:53:44.121Z,0.00
2022-08-19T01:54:44.112Z,0.00
2022-08-19T01:55:44.104Z,0.00
2022-08-19T01:56:44.113Z,0.00
2022-08-19T01:57:45.081Z,0.00
2022-08-19T01:58:44.071Z,0.00
2022-08-19T01:59:44.067Z,0.00
2022-08-19T02:00:44.055Z,0.00
2022-08-19T02:01:44.059Z,0.00
2022-08-19T02:02:44.297Z,0.00
2022-08-19T02:03:44.031Z,0.00
2022-08-19T02:04:44.013Z,0.00
2022-08-19T02:05:44.008Z,0.00
2022-08-19T02:06:43.999Z,0.00
2022-08-19T02:07:44.004Z,0.00
2022-08-19T02:08:43.979Z,0.00
2022-08-19T02:09:43.966Z,0.00
2022-08-19T02:10:43.959Z,0.00
2022-08-19T02:11:43.943Z,0.00
2022-08-19T02:12:43.981Z,0.00
2022-08-19T02:13:43.930Z,0.00
2022-08-19T02:14:43.916Z,0.00
2022-08-19T02:15:43.906Z,0.00
2022-08-19T02:16:43.889Z,0.00
2022-08-19T02:17:43.884Z,0.00
2022-08-19T02:18:43.892Z,0.00
2022-08-19T02:19:43.863Z,0.00
2022-08-19T02:20:43.856Z,0.00
2022-08-19T02:21:43.846Z,0.00
2022-08-19T02:22:43.838Z,0.00
2022-08-19T02:23:43.843Z,0.00
2022-08-19T02:24:43.818Z,0.00
2022-08-19T02:25:43.817Z,0.00
2022-08-19T02:26:43.801Z,0.00
2022-08-19T02:27:43.790Z,0.00
2022-08-19T02:28:43.817Z,0.00
2022-08-19T02:29:43.779Z,0.00
2022-08-19T02:30:43.759Z,0.00
2022-08-19T02:31:43.752Z,0.00
2022-08-19T02:32:44.814Z,0.00
2022-08-19T02:33:43.735Z,0.00
2022-08-19T02:34:43.727Z,0.00
2022-08-19T02:35:44.710Z,0.00
2022-08-19T02:36:43.697Z,0.00
2022-08-19T02:37:43.688Z,0.00
2022-08-19T02:38:47.029Z,0.00
2022-08-19T02:39:44.718Z,0.00
2022-08-19T02:40:43.657Z,0.00
2022-08-19T02:41:43.650Z,0.00
2022-08-19T02:42:43.642Z,0.00
2022-08-19T02:44:11.454Z,0.00
2022-08-19T02:44:44.633Z,0.00
2022-08-19T02:45:43.611Z,0.00
2022-08-19T02:46:43.600Z,0.00
2022-08-19T02:47:43.602Z,0.00
2022-08-19T02:48:43.577Z,0.00
2022-08-19T02:49:43.574Z,0.00
2022-08-19T02:50:53.348Z,0.00
2022-08-19T02:51:44.564Z,0.00
2022-08-19T02:52:43.546Z,0.00
2022-08-19T02:53:43.535Z,0.00
2022-08-19T02:54:43.524Z,0.00
2022-08-19T02:55:45.972Z,0.00
2022-08-19T02:56:43.505Z,0.00
2022-08-19T02:57:43.496Z,0.00
2022-08-19T02:58:43.494Z,0.00
2022-08-19T02:59:43.475Z,0.00
2022-08-19T03:00:43.496Z,0.00
2022-08-19T03:01:43.545Z,0.00
2022-08-19T03:02:43.448Z,0.00
2022-08-19T03:03:43.440Z,0.00
2022-08-19T03:04:43.428Z,0.00
2022-08-19T03:05:56.214Z,0.00
2022-08-19T03:06:44.409Z,0.00
2022-08-19T03:07:43.401Z,0.00
2022-08-19T03:08:43.389Z,0.00
2022-08-19T03:09:43.377Z,0.00
2022-08-19T03:10:43.366Z,0.00
2022-08-19T03:11:43.375Z,0.00
2022-08-19T03:12:43.349Z,0.00
2022-08-19T03:13:43.341Z,0.00
2022-08-19T03:14:43.328Z,0.00
2022-08-19T03:15:43.315Z,0.00
2022-08-19T03:16:43.318Z,0.00
2022-08-19T03:17:43.297Z,0.00
2022-08-19T03:18:43.283Z,0.00
2022-08-19T03:19:43.277Z,0.00
2022-08-19T03:20:43.267Z,0.00
2022-08-19T03:21:43.275Z,0.00
2022-08-19T03:22:43.244Z,0.00
2022-08-19T03:23:43.235Z,0.00
2022-08-19T03:24:43.222Z,0.00
2022-08-19T03:25:43.219Z,0.00
2022-08-19T03:26:43.248Z,0.00
2022-08-19T03:27:43.195Z,0.00
2022-08-19T03:28:43.201Z,0.00
2022-08-19T03:29:44.201Z,0.00
2022-08-19T03:30:43.660Z,0.00
2022-08-19T03:31:51.088Z,0.00
2022-08-19T03:32:45.314Z,0.00
2022-08-19T03:33:43.137Z,0.00
2022-08-19T03:34:43.127Z,0.00
2022-08-19T03:35:43.119Z,0.00
2022-08-19T03:36:43.108Z,0.00
2022-08-19T03:37:43.125Z,0.00
2022-08-19T03:38:43.158Z,0.00
2022-08-19T03:39:43.134Z,0.00
2022-08-19T03:40:43.073Z,0.00
2022-08-19T03:41:44.615Z,0.00
2022-08-19T03:42:56.774Z,0.00
2022-08-19T03:43:44.048Z,0.00
2022-08-19T03:44:43.035Z,0.00
2022-08-19T03:45:43.025Z,0.00
2022-08-19T03:46:44.615Z,0.00
2022-08-19T03:47:43.024Z,0.00
2022-08-19T03:50:08.870Z,0.00
2022-08-19T03:51:08.881Z,0.00
2022-08-19T03:52:08.878Z,0.00
2022-08-19T03:53:08.899Z,0.00
2022-08-19T03:54:08.866Z,0.00
2022-08-19T03:55:08.839Z,0.00
2022-08-19T03:56:08.841Z,0.00
2022-08-19T03:57:08.828Z,0.00
2022-08-19T03:58:08.820Z,0.00
2022-08-19T03:59:09.949Z,0.00
2022-08-19T04:00:13.421Z,0.00
2022-08-19T04:01:09.950Z,0.00
2022-08-19T04:02:09.941Z,0.00
2022-08-19T04:03:09.900Z,0.00
2022-08-19T04:04:09.908Z,0.00
2022-08-19T04:05:09.884Z,0.00
2022-08-19T04:06:09.870Z,0.00
2022-08-19T04:07:09.863Z,0.00
2022-08-19T04:08:13.749Z,0.00
2022-08-19T04:09:10.882Z,0.00
2022-08-19T04:10:10.698Z,0.00
2022-08-19T04:11:09.820Z,0.00
2022-08-19T04:12:09.813Z,0.00
2022-08-19T04:13:09.805Z,0.00
2022-08-19T04:14:09.809Z,0.00
2022-08-19T04:15:09.807Z,0.00
2022-08-19T04:16:09.777Z,0.00
2022-08-19T04:17:09.769Z,0.00
2022-08-19T04:18:09.760Z,0.00
2022-08-19T04:19:09.768Z,0.00
2022-08-19T04:20:09.754Z,0.00
2022-08-19T04:21:09.733Z,0.00
2022-08-19T04:22:09.763Z,0.00
2022-08-19T04:23:09.708Z,0.00
2022-08-19T04:24:09.714Z,0.00
2022-08-19T04:25:09.708Z,0.00
2022-08-19T04:26:09.678Z,0.00
2022-08-19T04:27:10.671Z,0.00
2022-08-19T04:28:09.663Z,0.00
2022-08-19T04:29:12.576Z,0.00
2022-08-19T04:30:10.660Z,0.00
2022-08-19T04:31:09.653Z,0.00
2022-08-19T04:32:09.965Z,0.00
2022-08-19T04:33:10.615Z,0.00
2022-08-19T04:34:09.612Z,0.00
2022-08-19T04:35:16.920Z,0.00
2022-08-19T04:36:10.605Z,0.00
2022-08-19T04:37:09.572Z,0.00
2022-08-19T04:38:09.565Z,0.00
2022-08-19T04:39:09.570Z,0.00
2022-08-19T04:40:09.728Z,0.00
2022-08-19T04:41:09.539Z,0.00
2022-08-19T04:42:09.528Z,5.62
2022-08-19T04:43:09.517Z,5.62
2022-08-19T04:44:09.524Z,5.62
2022-08-19T04:45:09.590Z,5.62
2022-08-19T04:46:09.491Z,5.62
2022-08-19T04:47:11.277Z,5.62
2022-08-19T04:48:27.289Z,5.62
2022-08-19T04:49:13.701Z,5.62
2022-08-19T04:50:09.456Z,5.62
2022-08-19T04:51:09.441Z,5.62
2022-08-19T04:52:09.466Z,5.62
2022-08-19T04:53:09.425Z,5.62
2022-08-19T04:54:09.420Z,5.62
2022-08-19T04:55:09.432Z,5.62
2022-08-19T04:56:09.404Z,5.62
2022-08-19T04:57:09.511Z,11.25
2022-08-19T04:58:09.380Z,11.25
2022-08-19T04:59:09.374Z,11.25
2022-08-19T05:00:09.383Z,11.25
2022-08-19T05:01:09.414Z,11.25
2022-08-19T05:02:09.361Z,11.25
2022-08-19T05:03:09.332Z,11.25
2022-08-19T05:04:09.328Z,11.25
2022-08-19T05:05:09.336Z,16.88
2022-08-19T05:06:09.305Z,16.88
2022-08-19T05:07:09.295Z,16.88
2022-08-19T05:08:09.290Z,16.88
2022-08-19T05:09:09.278Z,16.88
2022-08-19T05:10:09.280Z,22.50
2022-08-19T05:11:09.260Z,22.50
2022-08-19T05:12:09.249Z,22.50
2022-08-19T05:13:09.243Z,22.50
2022-08-19T05:14:09.248Z,28.12
2022-08-19T05:15:09.246Z,28.12
2022-08-19T05:16:09.203Z,28.12
2022-08-19T05:17:26.662Z,33.75
2022-08-19T05:18:11.187Z,33.75
2022-08-19T05:19:09.177Z,39.38
2022-08-19T05:20:09.230Z,39.38
2022-08-19T05:21:09.162Z,39.38
2022-08-19T05:22:09.151Z,45.00
2022-08-19T05:23:09.141Z,45.00
2022-08-19T05:24:10.133Z,50.62
2022-08-19T05:25:12.918Z,56.25
2022-08-19T05:26:10.150Z,56.25
2022-08-19T05:27:09.102Z,61.88
2022-08-19T05:28:09.087Z,67.50
2022-08-19T05:29:09.081Z,73.12
2022-08-19T05:30:09.107Z,78.75
2022-08-19T05:31:09.077Z,84.38
2022-08-19T05:32:09.052Z,90.00
2022-08-19T05:33:09.042Z,90.00
2022-08-19T05:34:18.457Z,101.25
2022-08-19T05:35:10.041Z,112.50
2022-08-19T05:36:09.034Z,118.12
2022-08-19T05:37:09.006Z,112.50
2022-08-19T05:38:08.998Z,112.50
2022-08-19T05:39:08.989Z,118.12
2022-08-19T05:40:09.183Z,106.88
2022-08-19T05:41:08.997Z,106.88
2022-08-19T05:42:08.958Z,106.88
2022-08-19T05:43:08.946Z,112.50
2022-08-19T05:44:08.939Z,112.50
2022-08-19T05:45:08.928Z,112.50
2022-08-19T05:46:08.948Z,118.12
2022-08-19T05:47:08.909Z,129.38
2022-08-19T05:48:08.898Z,140.62
2022-08-19T05:49:08.891Z,140.62
2022-08-19T05:50:08.880Z,151.88
2022-08-19T05:51:08.897Z,157.50
2022-08-19T05:52:08.861Z,151.88
2022-08-19T05:53:08.854Z,157.50
2022-08-19T05:54:08.842Z,151.88
2022-08-19T05:55:08.839Z,151.88
2022-08-19T05:56:08.839Z,151.88
2022-08-19T05:57:08.814Z,123.75
2022-08-19T05:58:08.829Z,123.75
2022-08-19T05:59:08.795Z,123.75
2022-08-19T06:00:08.783Z,129.38
2022-08-19T06:01:08.822Z,163.12
2022-08-19T06:02:08.802Z,196.88
2022-08-19T06:03:12.525Z,213.75
2022-08-19T06:04:08.749Z,219.38
2022-08-19T06:05:08.734Z,213.75
2022-08-19T06:06:08.773Z,208.12
2022-08-19T06:07:12.172Z,174.38
2022-08-19T06:08:08.704Z,174.38
2022-08-19T06:09:08.703Z,168.75
2022-08-19T06:10:08.697Z,180.00
2022-08-19T06:11:08.682Z,185.62
2022-08-19T06:12:08.691Z,196.88
2022-08-19T06:13:08.666Z,219.38
2022-08-19T06:14:09.650Z,236.25
2022-08-19T06:15:09.645Z,270.00
2022-08-19T06:16:08.635Z,247.50
2022-08-19T06:17:08.640Z,225.00
2022-08-19T06:18:08.617Z,247.50
2022-08-19T06:19:08.608Z,264.38
2022-08-19T06:20:08.606Z,281.25
2022-08-19T06:21:08.607Z,292.50
2022-08-19T06:22:08.648Z,309.38
2022-08-19T06:23:08.570Z,275.62
2022-08-19T06:24:08.559Z,315.00
2022-08-19T06:25:08.552Z,337.50
2022-08-19T06:26:08.544Z,382.50
2022-08-19T06:27:08.551Z,427.50
2022-08-19T06:28:15.934Z,495.00
2022-08-19T06:29:10.511Z,607.50
2022-08-19T06:30:09.499Z,573.75
2022-08-19T06:31:08.494Z,489.38
2022-08-19T06:32:08.512Z,416.25
2022-08-19T06:33:08.472Z,388.12
2022-08-19T06:34:08.477Z,388.12
2022-08-19T06:35:08.465Z,466.88
2022-08-19T06:36:08.443Z,416.25
2022-08-19T06:37:08.476Z,405.00
2022-08-19T06:38:08.433Z,461.25
2022-08-19T06:39:08.422Z,478.12
2022-08-19T06:40:08.453Z,455.62
2022-08-19T06:41:08.442Z,483.75
2022-08-19T06:42:10.310Z,483.75
2022-08-19T06:43:09.369Z,540.00
2022-08-19T06:44:08.390Z,410.62
2022-08-19T06:45:09.344Z,376.88
2022-08-19T06:46:08.346Z,365.62
2022-08-19T06:47:09.644Z,320.62
2022-08-19T06:48:09.342Z,382.50
2022-08-19T06:49:08.342Z,421.88
2022-08-19T06:50:08.318Z,421.88
2022-08-19T06:51:08.603Z,405.00
2022-08-19T06:52:08.290Z,343.12
2022-08-19T06:53:08.308Z,275.62
2022-08-19T06:54:08.417Z,241.88
2022-08-19T06:55:09.263Z,202.50
2022-08-19T06:56:08.252Z,191.25
2022-08-19T06:57:08.243Z,168.75
2022-08-19T06:58:08.272Z,163.12
2022-08-19T06:59:08.221Z,157.50
2022-08-19T07:00:12.244Z,157.50
2022-08-19T07:01:09.210Z,163.12
2022-08-19T07:02:08.234Z,163.12
2022-08-19T07:03:08.918Z,163.12
2022-08-19T07:04:09.171Z,163.12
2022-08-19T07:05:08.165Z,168.75
2022-08-19T07:06:09.807Z,174.38
2022-08-19T07:07:19.707Z,180.00
2022-08-19T07:08:09.160Z,180.00
2022-08-19T07:09:08.125Z,174.38
2022-08-19T07:10:08.115Z,168.75
2022-08-19T07:11:09.370Z,163.12
2022-08-19T07:12:08.095Z,168.75
2022-08-19T07:13:08.122Z,157.50
2022-08-19T07:14:19.068Z,163.12
2022-08-19T07:15:09.066Z,174.38
2022-08-19T07:16:08.067Z,185.62
2022-08-19T07:17:08.050Z,185.62
2022-08-19T07:18:08.069Z,202.50
2022-08-19T07:19:15.544Z,202.50
2022-08-19T07:20:09.462Z,202.50
2022-08-19T07:21:09.378Z,213.75
2022-08-19T07:22:08.001Z,213.75
2022-08-19T07:23:09.036Z,213.75
2022-08-19T07:24:08.007Z,213.75
2022-08-19T07:25:08.005Z,202.50
2022-08-19T07:26:07.965Z,202.50
2022-08-19T07:27:10.617Z,208.12
2022-08-19T07:28:08.941Z,208.12
2022-08-19T07:29:08.948Z,208.12
2022-08-19T07:30:07.922Z,213.75
2022-08-19T07:31:07.912Z,213.75
2022-08-19T07:32:07.927Z,213.75
2022-08-19T07:33:08.924Z,219.38
2022-08-19T07:34:07.897Z,219.38
2022-08-19T07:35:07.894Z,219.38
2022-08-19T07:36:07.865Z,225.00
2022-08-19T07:37:07.858Z,230.62
2022-08-19T07:38:07.853Z,230.62
2022-08-19T07:39:07.857Z,236.25
2022-08-19T07:40:07.948Z,236.25
2022-08-19T07:41:07.820Z,241.88
2022-08-19T07:42:07.871Z,241.88
2022-08-19T07:43:10.191Z,241.88
2022-08-19T07:44:08.819Z,241.88
2022-08-19T07:45:07.785Z,241.88
2022-08-19T07:47:07.760Z,247.50
2022-08-19T07:48:08.768Z,264.38
2022-08-19T07:49:07.775Z,258.75
2022-08-19T07:50:08.658Z,258.75
2022-08-19T07:51:07.723Z,253.12
2022-08-19T07:52:07.714Z,253.12
2022-08-19T07:53:07.707Z,253.12
2022-08-19T07:54:07.694Z,247.50
2022-08-19T07:55:07.705Z,247.50
2022-08-19T07:56:08.683Z,247.50
2022-08-19T07:57:07.699Z,247.50
2022-08-19T07:58:07.725Z,247.50
2022-08-19T07:59:07.735Z,247.50
2022-08-19T08:00:07.719Z,253.12
2022-08-19T08:01:07.632Z,253.12
2022-08-19T08:02:07.673Z,253.12
2022-08-19T08:03:07.619Z,253.12
2022-08-19T08:04:07.608Z,258.75
2022-08-19T08:05:07.625Z,264.38
2022-08-19T08:06:07.616Z,275.62
2022-08-19T08:07:07.575Z,281.25
2022-08-19T08:08:07.568Z,286.88
2022-08-19T08:09:07.575Z,292.50
2022-08-19T08:10:12.618Z,298.12
2022-08-19T08:11:08.538Z,315.00
2022-08-19T08:12:32.972Z,320.62
2022-08-19T08:13:11.035Z,326.25
2022-08-19T08:14:07.509Z,326.25
2022-08-19T08:15:08.570Z,320.62
2022-08-19T08:16:07.494Z,315.00
2022-08-19T08:17:10.863Z,315.00
2022-08-19T08:18:07.479Z,315.00
2022-08-19T08:19:14.755Z,315.00
2022-08-19T08:20:08.518Z,309.38
2022-08-19T08:21:07.444Z,303.75
2022-08-19T08:22:07.437Z,298.12
2022-08-19T08:23:07.436Z,298.12
2022-08-19T08:24:07.423Z,292.50
2022-08-19T08:25:07.408Z,292.50
2022-08-19T08:26:07.416Z,286.88
2022-08-19T08:27:11.088Z,286.88
2022-08-19T08:28:07.379Z,281.25
2022-08-19T08:29:12.261Z,281.25
2022-08-19T08:30:08.357Z,275.62
2022-08-19T08:31:09.418Z,275.62
2022-08-19T08:32:14.831Z,275.62
2022-08-19T08:33:08.380Z,275.62
2022-08-19T08:34:07.320Z,281.25
2022-08-19T08:35:07.309Z,281.25
2022-08-19T08:36:07.315Z,286.88
2022-08-19T08:37:07.289Z,286.88
2022-08-19T08:38:07.301Z,286.88
2022-08-19T08:39:07.267Z,298.12
2022-08-19T08:40:08.996Z,303.75
2022-08-19T08:41:08.276Z,315.00
2022-08-19T08:42:09.903Z,331.88
2022-08-19T08:43:07.264Z,343.12
2022-08-19T08:44:07.218Z,326.25
2022-08-19T08:45:07.250Z,331.88
2022-08-19T08:46:07.562Z,365.62
2022-08-19T08:47:07.922Z,354.38
2022-08-19T08:48:07.182Z,326.25
2022-08-19T08:49:08.172Z,320.62
2022-08-19T08:50:07.158Z,298.12
2022-08-19T08:51:07.150Z,292.50
2022-08-19T08:52:07.158Z,275.62
2022-08-19T08:53:07.136Z,247.50
2022-08-19T08:54:07.124Z,264.38
2022-08-19T08:55:10.096Z,270.00
2022-08-19T08:56:08.103Z,292.50
2022-08-19T08:57:07.114Z,270.00
2022-08-19T08:58:07.092Z,264.38
2022-08-19T08:59:07.080Z,286.88
2022-08-19T09:00:07.068Z,270.00
2022-08-19T09:01:08.105Z,264.38
2022-08-19T09:02:07.062Z,258.75
2022-08-19T09:03:07.037Z,241.88
2022-08-19T09:04:07.043Z,241.88
2022-08-19T09:05:07.020Z,270.00
2022-08-19T09:06:12.087Z,298.12
2022-08-19T09:07:18.195Z,326.25
2022-08-19T09:08:07.986Z,376.88
2022-08-19T09:09:12.227Z,388.12
2022-08-19T09:10:07.973Z,399.38
2022-08-19T09:11:06.961Z,416.25
2022-08-19T09:12:06.990Z,421.88
2022-08-19T09:13:09.237Z,421.88
2022-08-19T09:14:06.934Z,421.88
2022-08-19T09:15:06.930Z,421.88
2022-08-19T09:16:06.916Z,427.50
2022-08-19T09:17:06.907Z,433.12
2022-08-19T09:18:07.048Z,427.50
2022-08-19T09:19:06.887Z,433.12
2022-08-19T09:20:09.176Z,433.12
2022-08-19T09:21:06.867Z,421.88
2022-08-19T09:22:06.862Z,410.62
2022-08-19T09:23:06.860Z,399.38
2022-08-19T09:24:06.840Z,388.12
2022-08-19T09:25:06.831Z,376.88
2022-08-19T09:26:06.821Z,365.62
2022-08-19T09:27:08.411Z,354.38
2022-08-19T09:28:15.077Z,360.00
2022-08-19T09:29:07.787Z,360.00
2022-08-19T09:30:06.790Z,365.62
2022-08-19T09:31:06.779Z,371.25
2022-08-19T09:32:06.761Z,371.25
2022-08-19T09:33:07.769Z,382.50
2022-08-19T09:34:06.741Z,388.12
2022-08-19T09:35:08.898Z,393.75
2022-08-19T09:36:08.694Z,399.38
2022-08-19T09:37:06.708Z,433.12
2022-08-19T09:38:06.743Z,433.12
2022-08-19T09:39:16.181Z,416.25
2022-08-19T09:40:07.744Z,438.75
2022-08-19T09:41:06.689Z,444.38
2022-08-19T09:42:06.665Z,444.38
2022-08-19T09:43:10.064Z,427.50
2022-08-19T09:44:07.645Z,421.88
2022-08-19T09:45:10.212Z,399.38
2022-08-19T09:46:06.627Z,371.25
2022-08-19T09:47:06.617Z,360.00
2022-08-19T09:48:06.608Z,337.50
2022-08-19T09:49:06.952Z,326.25
2022-08-19T09:50:06.668Z,326.25
2022-08-19T09:51:06.580Z,337.50
2022-08-19T09:52:06.576Z,354.38
2022-08-19T09:53:06.862Z,360.00
2022-08-19T09:54:06.569Z,371.25
2022-08-19T09:55:07.212Z,382.50
2022-08-19T09:56:06.533Z,388.12
2022-08-19T09:57:07.666Z,388.12
2022-08-19T09:58:06.516Z,382.50
2022-08-19T09:59:06.528Z,376.88
2022-08-19T10:00:06.516Z,365.62
2022-08-19T10:01:06.560Z,348.75
2022-08-19T10:02:11.029Z,354.38
2022-08-19T10:03:07.205Z,337.50
2022-08-19T10:04:14.694Z,303.75
2022-08-19T10:05:08.456Z,281.25
2022-08-19T10:06:15.112Z,281.25
2022-08-19T10:07:07.512Z,292.50
2022-08-19T10:08:06.422Z,309.38
2022-08-19T10:09:09.025Z,315.00
2022-08-19T10:10:06.402Z,315.00
2022-08-19T10:11:28.747Z,292.50
2022-08-19T10:12:11.263Z,270.00
2022-08-19T10:13:06.369Z,264.38
2022-08-19T10:14:06.360Z,270.00
2022-08-19T10:15:06.383Z,286.88
2022-08-19T10:16:06.345Z,309.38
2022-08-19T10:17:19.258Z,315.00
2022-08-19T10:18:07.348Z,326.25
2022-08-19T10:19:06.317Z,348.75
2022-08-19T10:20:06.326Z,360.00
2022-08-19T10:21:06.299Z,365.62
2022-08-19T10:22:06.296Z,371.25
2022-08-19T10:23:06.282Z,365.62
2022-08-19T10:24:06.271Z,360.00
2022-08-19T10:25:06.275Z,365.62
2022-08-19T10:26:06.285Z,399.38
2022-08-19T10:27:06.246Z,421.88
2022-08-19T10:28:06.233Z,444.38
2022-08-19T10:29:06.225Z,444.38
2022-08-19T10:30:09.891Z,421.88
2022-08-19T10:31:06.201Z,433.12
2022-08-19T10:32:09.456Z,444.38
2022-08-19T10:33:10.853Z,416.25
2022-08-19T10:34:10.004Z,438.75
2022-08-19T10:35:06.246Z,331.88
2022-08-19T10:36:06.169Z,320.62
2022-08-19T10:37:06.144Z,331.88
2022-08-19T10:38:06.289Z,360.00
2022-08-19T10:39:06.124Z,399.38
2022-08-19T10:40:06.200Z,421.88
2022-08-19T10:41:06.106Z,472.50
2022-08-19T10:42:06.099Z,669.38
2022-08-19T10:43:06.093Z,658.12
2022-08-19T10:44:06.080Z,528.75
2022-08-19T10:45:06.108Z,618.75
2022-08-19T10:46:06.058Z,663.75
2022-08-19T10:47:17.596Z,686.25
2022-08-19T10:48:07.043Z,787.50
2022-08-19T10:49:07.033Z,810.00
2022-08-19T10:50:06.052Z,804.38
2022-08-19T10:51:06.014Z,691.88
2022-08-19T10:52:06.006Z,450.00
2022-08-19T10:53:08.112Z,545.62
2022-08-19T10:54:06.883Z,528.75
2022-08-19T10:55:08.675Z,365.62
2022-08-19T10:56:05.964Z,613.12
2022-08-19T10:57:05.953Z,613.12
2022-08-19T10:58:06.206Z,489.38
2022-08-19T10:59:05.937Z,663.75
2022-08-19T11:00:05.928Z,810.00
2022-08-19T11:01:06.000Z,855.00
2022-08-19T11:02:05.913Z,793.12
2022-08-19T11:03:05.898Z,978.75
2022-08-19T11:04:05.896Z,405.00
2022-08-19T11:05:12.726Z,472.50
2022-08-19T11:06:06.885Z,742.50
2022-08-19T11:07:05.862Z,995.62
2022-08-19T11:08:22.634Z,1490.62
2022-08-19T11:09:06.842Z,1563.75
2022-08-19T11:10:08.333Z,1535.62
2022-08-19T11:11:05.839Z,618.75
2022-08-19T11:12:05.822Z,1276.88
2022-08-19T11:13:05.805Z,1327.50
2022-08-19T11:14:05.801Z,1248.75
2022-08-19T11:15:05.786Z,1220.62
2022-08-19T11:16:07.831Z,1299.38
2022-08-19T11:17:06.767Z,1451.25
2022-08-19T11:18:05.761Z,1203.75
2022-08-19T11:19:06.748Z,1507.50
2022-08-19T11:20:06.676Z,1423.12
2022-08-19T11:21:05.760Z,1299.38
2022-08-19T11:22:05.723Z,1265.62
2022-08-19T11:23:05.718Z,1226.25
2022-08-19T11:24:05.708Z,1158.75
2022-08-19T11:25:05.701Z,1237.50
2022-08-19T11:26:05.687Z,1237.50
2022-08-19T11:27:05.692Z,1192.50
2022-08-19T11:28:05.678Z,1231.88
2022-08-19T11:29:05.661Z,1243.12
2022-08-19T11:30:07.932Z,331.88
2022-08-19T11:31:05.651Z,1271.25
2022-08-19T11:32:05.647Z,1299.38
2022-08-19T11:33:05.623Z,1141.88
2022-08-19T11:34:05.624Z,1535.62
2022-08-19T11:35:05.604Z,1676.25
2022-08-19T11:36:05.596Z,528.75
2022-08-19T11:37:05.607Z,990.00
2022-08-19T11:38:09.715Z,1659.38
2022-08-19T11:39:06.571Z,1530.00
2022-08-19T11:40:05.674Z,1468.12
2022-08-19T11:41:05.551Z,1378.12
2022-08-19T11:42:05.584Z,1389.38
2022-08-19T11:43:05.551Z,1400.62
2022-08-19T11:44:05.532Z,1445.62
2022-08-19T11:45:05.513Z,1524.38
2022-08-19T11:46:05.508Z,1665.00
2022-08-19T11:47:08.842Z,1766.25
2022-08-19T11:48:05.487Z,1653.75
2022-08-19T11:49:05.473Z,1552.50
2022-08-19T11:50:05.469Z,1490.62
2022-08-19T11:51:05.451Z,1423.12
2022-08-19T11:52:05.443Z,1400.62
2022-08-19T11:53:05.803Z,1378.12
2022-08-19T11:54:05.427Z,1400.62
2022-08-19T11:55:05.418Z,1490.62
2022-08-19T11:56:05.400Z,1546.88
2022-08-19T11:57:05.398Z,1530.00
2022-08-19T11:58:05.411Z,1552.50
2022-08-19T11:59:05.381Z,1530.00
2022-08-19T12:00:05.365Z,1411.88
2022-08-19T12:01:05.369Z,1338.75
2022-08-19T12:02:05.355Z,1372.50
2022-08-19T12:03:05.383Z,405.00
2022-08-19T12:04:05.489Z,275.62
2022-08-19T12:05:09.032Z,258.75
2022-08-19T12:06:06.325Z,236.25
2022-08-19T12:07:05.308Z,247.50
2022-08-19T12:08:05.335Z,270.00
2022-08-19T12:09:05.286Z,270.00
2022-08-19T12:10:05.280Z,309.38
2022-08-19T12:11:05.265Z,1023.75
2022-08-19T12:12:05.258Z,1310.62
2022-08-19T12:13:05.255Z,1288.12
2022-08-19T12:14:05.253Z,1299.38
2022-08-19T12:15:05.229Z,1288.12
2022-08-19T12:16:05.222Z,1130.62
2022-08-19T12:17:05.212Z,1299.38
2022-08-19T12:18:05.208Z,1361.25
2022-08-19T12:19:05.307Z,1355.62
2022-08-19T12:20:05.189Z,1321.88
2022-08-19T12:21:05.177Z,1299.38
2022-08-19T12:22:05.167Z,1248.75
2022-08-19T12:23:05.158Z,1181.25
2022-08-19T12:24:05.248Z,1158.75
2022-08-19T12:25:05.136Z,1074.38
2022-08-19T12:26:05.130Z,1029.38
2022-08-19T12:27:05.133Z,1029.38
2022-08-19T12:28:05.137Z,995.62
2022-08-19T12:29:05.131Z,984.38
2022-08-19T12:30:05.093Z,961.88
2022-08-19T12:31:05.086Z,900.00
2022-08-19T12:32:05.073Z,832.50
2022-08-19T12:33:05.061Z,793.12
2022-08-19T12:34:05.073Z,759.38
2022-08-19T12:35:05.047Z,652.50
2022-08-19T12:36:05.058Z,461.25
2022-08-19T12:37:05.027Z,635.62
2022-08-19T12:38:05.017Z,691.88
2022-08-19T12:39:05.025Z,360.00
2022-08-19T12:40:05.022Z,675.00
2022-08-19T12:41:04.991Z,652.50
2022-08-19T12:42:04.985Z,590.62
2022-08-19T12:43:04.970Z,281.25
2022-08-19T12:44:04.972Z,258.75
2022-08-19T12:45:04.952Z,247.50
2022-08-19T12:46:04.943Z,303.75
2022-08-19T12:47:04.934Z,309.38
2022-08-19T12:48:32.819Z,247.50